Terminal Aerodrome Forecast
Issued by NWS

Home | Current Version | Previous Version | Text Only | Print | Product List | Glossary On
Versions: 1 2 3 4 5 6 7 8 9 10 11 12 13 14 15 16 17 18 19 20
000
FTUS44 KMAF 031742
TAFFST
TAF
KFST 031742Z 0318/0418 10009KT P6SM BKN035
     FM032000 12010KT P6SM SCT040 SCT200
     FM041200 14009KT P6SM SCT020 BKN100
     FM041500 14013KT P6SM SCT040 BKN100=

USA.gov is the U.S. government's official web portal to all federal, state and local government web resources and services.